createdAt,value
2023-09-27T00:02:29.033Z,4.04
2023-09-27T00:06:31.660Z,4.04
2023-09-27T00:08:32.854Z,4.04
2023-09-27T00:12:36.532Z,4.04
2023-09-27T00:14:38.296Z,4.04
2023-09-27T00:18:41.351Z,4.04
2023-09-27T00:24:46.022Z,4.04
2023-09-27T00:30:50.533Z,4.04
2023-09-27T00:34:53.122Z,4.04
2023-09-27T00:40:57.006Z,4.03
2023-09-27T00:44:59.834Z,4.04
2023-09-27T00:49:02.780Z,4.04
2023-09-27T00:51:04.057Z,4.03
2023-09-27T00:55:07.270Z,4.03
2023-09-27T00:57:08.302Z,4.03
2023-09-27T01:01:11.345Z,4.03
2023-09-27T01:07:15.019Z,4.03
2023-09-27T01:13:19.393Z,4.03
2023-09-27T01:17:30.538Z,4.03
2023-09-27T01:23:27.746Z,4.02
2023-09-27T01:27:31.235Z,4.02
2023-09-27T01:29:32.600Z,4.02
2023-09-27T01:33:35.877Z,4.02
2023-09-27T01:37:38.912Z,4.02
2023-09-27T01:39:40.814Z,4.02
2023-09-27T01:43:43.535Z,4.02
2023-09-27T01:49:47.998Z,4.02
2023-09-27T01:55:51.409Z,4.02
2023-09-27T01:59:54.803Z,4.02
2023-09-27T02:05:58.785Z,4.02
2023-09-27T02:10:01.700Z,4.02
2023-09-27T02:12:03.005Z,4.02
2023-09-27T02:16:06.072Z,4.01
2023-09-27T02:20:09.425Z,4.01
2023-09-27T02:22:11.138Z,4.01
2023-09-27T02:26:13.283Z,4.01
2023-09-27T02:32:17.278Z,4.01
2023-09-27T02:38:22.319Z,4.01
2023-09-27T02:42:25.982Z,4
2023-09-27T02:48:30.071Z,4
2023-09-27T02:52:32.725Z,4
2023-09-27T02:54:33.843Z,4
2023-09-27T02:58:36.502Z,4
2023-09-27T03:02:39.549Z,4
2023-09-27T03:04:41.233Z,4
2023-09-27T03:08:43.710Z,4
2023-09-27T03:14:47.480Z,4
2023-09-27T03:18:49.977Z,4
2023-09-27T03:20:51.873Z,4
2023-09-27T03:24:54.336Z,4
2023-09-27T03:30:59.094Z,4
2023-09-27T03:37:03.130Z,3.99
2023-09-27T03:41:05.401Z,3.99
2023-09-27T03:47:10.242Z,3.99
2023-09-27T03:51:13.495Z,3.99
2023-09-27T03:53:15.134Z,3.99
2023-09-27T03:57:18.364Z,3.99
2023-09-27T04:01:21.030Z,3.98
2023-09-27T04:03:22.512Z,3.98
2023-09-27T04:07:24.712Z,3.98
2023-09-27T04:13:29.123Z,3.98
2023-09-27T04:19:34.480Z,3.98
2023-09-27T04:23:37.896Z,3.98
2023-09-27T04:29:41.611Z,3.98
2023-09-27T04:33:44.628Z,3.98
2023-09-27T04:35:45.701Z,3.98
2023-09-27T04:39:48.539Z,3.98
2023-09-27T04:43:51.896Z,3.98
2023-09-27T04:45:53.560Z,3.98
2023-09-27T04:49:56.132Z,3.98
2023-09-27T04:55:59.609Z,3.98
2023-09-27T05:02:04.958Z,3.97
2023-09-27T05:06:07.357Z,3.97
2023-09-27T05:12:12.205Z,3.97
2023-09-27T05:16:14.610Z,3.97
2023-09-27T05:18:16.387Z,3.96
2023-09-27T05:22:18.815Z,3.97
2023-09-27T05:26:21.116Z,3.97
2023-09-27T05:28:22.096Z,3.97
2023-09-27T05:32:25.636Z,3.96
2023-09-27T05:36:27.870Z,3.96
2023-09-27T05:38:29.829Z,3.96
2023-09-27T05:42:33.135Z,3.96
2023-09-27T05:44:34.921Z,3.96
2023-09-27T05:48:38.239Z,3.96
2023-09-27T05:54:42.692Z,3.96
2023-09-27T05:58:46.830Z,3.96
2023-09-27T06:00:48.090Z,3.96
2023-09-27T06:04:50.275Z,3.96
2023-09-27T06:08:53.124Z,3.96
2023-09-27T06:10:54.575Z,3.96
2023-09-27T06:14:57.748Z,3.96
2023-09-27T06:19:01.203Z,3.96
2023-09-27T06:21:02.385Z,3.95
2023-09-27T06:21:47.619Z,3.95
2023-09-27T06:23:49.436Z,3.96
2023-09-27T06:25:50.998Z,3.96
2023-09-27T06:31:55.193Z,3.96
2023-09-27T06:33:56.374Z,3.96
2023-09-27T06:37:58.908Z,3.97
2023-09-27T06:42:01.549Z,3.97
2023-09-27T06:48:05.516Z,3.97
2023-09-27T06:52:08.089Z,3.98
2023-09-27T06:54:09.173Z,4.01
2023-09-27T06:58:11.957Z,3.99
2023-09-27T07:02:14.533Z,3.99
2023-09-27T07:04:15.749Z,4
2023-09-27T07:08:18.224Z,4
2023-09-27T07:14:22.799Z,4.01
2023-09-27T07:20:27.412Z,4.04
2023-09-27T07:24:30.469Z,4.04
2023-09-27T07:30:35.428Z,4.06
2023-09-27T07:34:38.661Z,4.06
2023-09-27T07:36:40.228Z,4.06
2023-09-27T07:40:42.596Z,4.07
2023-09-27T07:44:45.637Z,4.08
2023-09-27T07:46:47.303Z,4.08
2023-09-27T07:50:49.153Z,4.08
2023-09-27T07:56:54.550Z,4.09
2023-09-27T08:02:56.259Z,4.1
2023-09-27T08:06:59.028Z,4.11
2023-09-27T08:13:03.111Z,4.11
2023-09-27T08:19:06.498Z,4.12
2023-09-27T08:23:09.438Z,4.13
2023-09-27T08:29:12.672Z,4.13
2023-09-27T08:33:15.202Z,4.14
2023-09-27T08:35:16.237Z,4.14
2023-09-27T08:39:19.101Z,4.15
2023-09-27T08:43:21.778Z,4.16
2023-09-27T08:45:23.181Z,4.16
2023-09-27T08:49:25.125Z,4.16
2023-09-27T08:55:27.988Z,4.17
2023-09-27T09:01:32.139Z,4.17
2023-09-27T09:05:34.819Z,4.17
2023-09-27T09:11:38.878Z,4.18
2023-09-27T09:15:41.836Z,4.18
2023-09-27T09:17:42.525Z,4.18
2023-09-27T09:21:44.878Z,4.19
2023-09-27T09:25:47.544Z,4.19
2023-09-27T09:27:49.199Z,4.19
2023-09-27T09:31:52.594Z,4.19
2023-09-27T09:37:57.356Z,4.19
2023-09-27T09:44:01.223Z,4.19
2023-09-27T09:48:04.239Z,4.19
2023-09-27T09:54:10.134Z,4.19
2023-09-27T09:58:12.913Z,4.19
2023-09-27T10:00:13.836Z,4.2
2023-09-27T10:04:17.074Z,4.2
2023-09-27T10:08:19.891Z,4.2
2023-09-27T10:10:20.986Z,4.2
2023-09-27T10:14:22.862Z,4.2
2023-09-27T10:18:25.325Z,4.2
2023-09-27T10:20:26.159Z,4.2
2023-09-27T10:24:28.581Z,4.19
2023-09-27T10:26:30.328Z,4.2
2023-09-27T10:28:31.007Z,4.18
2023-09-27T10:30:31.872Z,4.18
2023-09-27T10:36:34.602Z,4.18
2023-09-27T10:38:36.218Z,4.18
2023-09-27T10:42:38.919Z,4.18
2023-09-27T10:46:40.630Z,4.17
2023-09-27T10:52:45.147Z,4.17
2023-09-27T10:56:47.301Z,4.17
2023-09-27T10:58:48.389Z,4.18
2023-09-27T11:02:51.076Z,4.17
2023-09-27T11:06:53.436Z,4.17
2023-09-27T11:08:54.970Z,4.17
2023-09-27T11:12:57.691Z,4.17
2023-09-27T11:19:00.883Z,4.17
2023-09-27T11:25:13.118Z,4.17
2023-09-27T11:29:06.025Z,4.17
2023-09-27T11:35:09.261Z,4.16
2023-09-27T11:41:13.129Z,4.16
2023-09-27T11:45:16.266Z,4.16
2023-09-27T11:49:19.089Z,4.16
2023-09-27T11:51:20.410Z,4.16
2023-09-27T11:55:23.300Z,4.16
2023-09-27T11:59:25.839Z,4.16
2023-09-27T12:01:27.229Z,4.16
2023-09-27T12:05:30.398Z,4.16
2023-09-27T12:07:31.328Z,4.16
2023-09-27T12:09:32.030Z,4.16
2023-09-27T12:11:33.374Z,4.15
2023-09-27T12:17:37.247Z,4.15
2023-09-27T12:23:41.501Z,4.15
2023-09-27T12:27:43.922Z,4.15
2023-09-27T12:33:47.677Z,4.14
2023-09-27T12:37:50.367Z,4.15
2023-09-27T12:39:51.811Z,4.14
2023-09-27T12:43:54.172Z,4.15
2023-09-27T12:47:56.687Z,4.14
2023-09-27T12:49:57.656Z,4.14
2023-09-27T12:51:58.600Z,4.14
2023-09-27T12:56:01.621Z,4.14
2023-09-27T13:00:04.107Z,4.14
2023-09-27T13:06:07.731Z,4.14
2023-09-27T13:06:51.348Z,4.14
2023-09-27T13:10:54.224Z,4.14
2023-09-27T13:14:57.811Z,4.14
2023-09-27T13:16:58.468Z,4.14
2023-09-27T13:21:00.221Z,4.14
2023-09-27T13:27:04.728Z,4.13
2023-09-27T13:33:08.963Z,4.13
2023-09-27T13:37:12.005Z,4.13
2023-09-27T13:43:15.917Z,4.13
2023-09-27T13:47:18.065Z,4.13
2023-09-27T13:49:19.117Z,4.13
2023-09-27T13:53:21.090Z,4.13
2023-09-27T13:57:22.843Z,4.12
2023-09-27T13:59:24.396Z,4.12
2023-09-27T14:07:30.177Z,4.12
2023-09-27T14:09:31.151Z,4.12
2023-09-27T14:13:33.278Z,4.12
2023-09-27T14:15:34.892Z,4.12
2023-09-27T14:19:37.390Z,4.12
2023-09-27T14:25:42.696Z,4.16
2023-09-27T14:27:43.474Z,4.16
2023-09-27T14:31:46.015Z,4.17
2023-09-27T14:35:52.378Z,4.17
2023-09-27T14:41:51.672Z,4.18
2023-09-27T14:45:54.519Z,4.18
2023-09-27T14:47:56.132Z,4.18
2023-09-27T14:51:58.798Z,4.18
2023-09-27T14:56:01.192Z,4.19
2023-09-27T14:58:02.516Z,4.19
2023-09-27T15:02:04.655Z,4.19
2023-09-27T15:08:07.094Z,4.19
2023-09-27T15:14:10.354Z,4.2
2023-09-27T15:18:12.899Z,4.19
2023-09-27T15:24:15.836Z,4.19
2023-09-27T15:30:19.682Z,4.19
2023-09-27T15:34:22.996Z,4.2
2023-09-27T15:40:26.365Z,4.2
2023-09-27T15:44:28.263Z,4.2
2023-09-27T15:46:29.152Z,4.2
2023-09-27T15:50:32.182Z,4.2
2023-09-27T15:54:35.110Z,4.18
2023-09-27T15:56:36.738Z,4.18
2023-09-27T16:00:39.291Z,4.19
2023-09-27T16:06:42.557Z,4.18
2023-09-27T16:12:46.478Z,4.17
2023-09-27T16:16:48.952Z,4.17
2023-09-27T16:22:53.441Z,4.17
2023-09-27T16:26:55.517Z,4.17
2023-09-27T16:28:56.518Z,4.17
2023-09-27T16:32:59.064Z,4.17
2023-09-27T16:37:01.406Z,4.17
2023-09-27T16:39:02.257Z,4.17
2023-09-27T16:43:04.199Z,4.17
2023-09-27T16:47:06.309Z,4.17
2023-09-27T16:49:07.274Z,4.17
2023-09-27T16:53:10.423Z,4.16
2023-09-27T16:55:11.546Z,4.16
2023-09-27T16:57:12.762Z,4.16
2023-09-27T16:59:14.627Z,4.16
2023-09-27T17:05:17.545Z,4.16
2023-09-27T17:11:21.338Z,4.16
2023-09-27T17:15:24.410Z,4.16
2023-09-27T17:21:27.728Z,4.16
2023-09-27T17:25:30.593Z,4.16
2023-09-27T17:27:32.240Z,4.16
2023-09-27T17:31:35.085Z,4.16
2023-09-27T17:33:36.649Z,4.15
2023-09-27T17:35:37.660Z,4.15
2023-09-27T17:37:39.312Z,4.16
2023-09-27T17:41:41.760Z,4.15
2023-09-27T17:47:46.302Z,4.15
2023-09-27T17:53:49.883Z,4.15
2023-09-27T17:57:52.972Z,4.15
2023-09-27T18:03:57.843Z,4.14
2023-09-27T18:08:00.116Z,4.14
2023-09-27T18:10:01.650Z,4.14
2023-09-27T18:14:04.413Z,4.14
2023-09-27T18:18:07.345Z,4.14
2023-09-27T18:20:08.544Z,4.14
2023-09-27T18:24:11.820Z,4.14
2023-09-27T18:30:15.678Z,4.14
2023-09-27T18:34:18.395Z,4.14
2023-09-27T18:36:19.884Z,4.14
2023-09-27T18:40:22.296Z,4.13
2023-09-27T18:46:26.872Z,4.13
2023-09-27T18:52:30.185Z,4.13
2023-09-27T18:56:33.740Z,4.13
2023-09-27T19:02:38.279Z,4.13
2023-09-27T19:06:41.632Z,4.13
2023-09-27T19:10:44.333Z,4.12
2023-09-27T19:12:45.607Z,4.12
2023-09-27T19:16:48.989Z,4.12
2023-09-27T19:18:50.345Z,4.12
2023-09-27T19:20:51.789Z,4.12
2023-09-27T19:22:53.175Z,4.12
2023-09-27T19:28:58.423Z,4.12
2023-09-27T19:30:59.625Z,4.12
2023-09-27T19:35:02.404Z,4.12
2023-09-27T19:39:05.814Z,4.12
2023-09-27T19:45:09.067Z,4.11
2023-09-27T19:49:12.017Z,4.12
2023-09-27T19:51:13.520Z,4.12
2023-09-27T19:51:57.306Z,4.11
2023-09-27T19:56:00.230Z,4.11
2023-09-27T20:00:03.146Z,4.11
2023-09-27T20:06:06.513Z,4.11
2023-09-27T20:12:10.567Z,4.11
2023-09-27T20:16:13.835Z,4.11
2023-09-27T20:22:17.250Z,4.1
2023-09-27T20:26:20.209Z,4.1
2023-09-27T20:28:21.504Z,4.1
2023-09-27T20:32:24.157Z,4.1
2023-09-27T20:36:26.901Z,4.1
2023-09-27T20:38:28.238Z,4.1
2023-09-27T20:42:31.037Z,4.1
2023-09-27T20:48:34.915Z,4.1
2023-09-27T20:52:37.289Z,4.1
2023-09-27T20:54:38.755Z,4.09
2023-09-27T20:58:41.765Z,4.09
2023-09-27T21:04:45.924Z,4.09
2023-09-27T21:10:49.746Z,4.09
2023-09-27T21:12:50.722Z,4.09
2023-09-27T21:14:52.431Z,4.09
2023-09-27T21:20:55.408Z,4.09
2023-09-27T21:24:58.845Z,4.08
2023-09-27T21:27:00.592Z,4.09
2023-09-27T21:31:03.229Z,4.08
2023-09-27T21:35:05.465Z,4.08
2023-09-27T21:37:07.189Z,4.08
2023-09-27T21:41:10.026Z,4.08
2023-09-27T21:47:13.710Z,4.08
2023-09-27T21:53:18.896Z,4.08
2023-09-27T21:57:21.984Z,4.08
2023-09-27T22:03:26.505Z,4.08
2023-09-27T22:07:29.211Z,4.08
2023-09-27T22:09:30.677Z,4.08
2023-09-27T22:13:32.681Z,4.07
2023-09-27T22:17:35.633Z,4.07
2023-09-27T22:19:36.994Z,4.08
2023-09-27T22:23:40.002Z,4.07
2023-09-27T22:29:44.724Z,4.07
2023-09-27T22:35:49.380Z,4.06
2023-09-27T22:39:58.179Z,4.07
2023-09-27T22:45:57.078Z,4.07
2023-09-27T22:49:59.571Z,4.06
2023-09-27T22:52:00.978Z,4.06
2023-09-27T22:56:03.957Z,4.06
2023-09-27T23:00:07.113Z,4.06
2023-09-27T23:02:09.003Z,4.06
2023-09-27T23:06:11.074Z,4.06
2023-09-27T23:10:14.490Z,4.06
2023-09-27T23:12:16.125Z,4.06
2023-09-27T23:18:21.406Z,4.06
2023-09-27T23:22:24.416Z,4.06
2023-09-27T23:28:36.326Z,4.05
2023-09-27T23:32:32.098Z,4.05
2023-09-27T23:34:33.210Z,4.05
2023-09-27T23:38:36.465Z,4.05
2023-09-27T23:42:39.956Z,4.05
2023-09-27T23:44:41.517Z,4.05
2023-09-27T23:48:44.963Z,4.05
2023-09-27T23:52:48.056Z,4.05
2023-09-27T23:54:48.859Z,4.05
2023-09-27T23:58:51.966Z,4.04
